createdAt,value
2017-07-26T00:00:32.883Z,17.59
2017-07-26T00:03:00.435Z,17.66
2017-07-26T00:05:27.879Z,17.57
2017-07-26T00:07:55.339Z,17.42
2017-07-26T00:10:22.809Z,17.39
2017-07-26T00:12:50.291Z,17.26
2017-07-26T00:15:17.736Z,17.08
2017-07-26T00:17:45.232Z,17.09
2017-07-26T00:20:12.741Z,16.98
2017-07-26T00:22:40.199Z,16.97
2017-07-26T00:25:07.640Z,16.98
2017-07-26T00:27:35.104Z,16.98
2017-07-26T00:30:02.547Z,16.99
2017-07-26T00:32:30.003Z,17.13
2017-07-26T00:34:57.472Z,17.14
2017-07-26T00:37:24.905Z,17.14
2017-07-26T00:39:52.391Z,17.03
2017-07-26T00:42:19.948Z,17.12
2017-07-26T00:44:47.413Z,17.08
2017-07-26T00:47:14.955Z,17.06
2017-07-26T00:49:42.414Z,16.93
2017-07-26T00:52:09.842Z,17.04
2017-07-26T00:54:37.327Z,16.98
2017-07-26T00:57:04.788Z,17.04
2017-07-26T00:59:32.339Z,17.03
2017-07-26T01:01:59.769Z,16.85
2017-07-26T01:04:27.362Z,16.86
2017-07-26T01:06:55.392Z,17.06
2017-07-26T01:09:22.890Z,17.01
2017-07-26T01:11:50.361Z,17.00
2017-07-26T01:14:17.906Z,16.92
2017-07-26T01:16:45.362Z,16.91
2017-07-26T01:19:13.445Z,16.89
2017-07-26T01:21:40.916Z,16.93
2017-07-26T01:24:08.429Z,17.06
2017-07-26T01:26:35.899Z,16.99
2017-07-26T01:29:03.329Z,17.06
2017-07-26T01:31:30.805Z,17.00
2017-07-26T01:33:58.233Z,17.09
2017-07-26T01:36:25.683Z,17.04
2017-07-26T01:38:53.198Z,17.05
2017-07-26T01:41:20.686Z,16.99
2017-07-26T01:43:48.145Z,16.99
2017-07-26T01:46:15.601Z,16.96
2017-07-26T01:48:43.167Z,17.10
2017-07-26T01:51:10.602Z,17.14
2017-07-26T01:53:38.122Z,17.17
2017-07-26T01:56:05.558Z,17.11
2017-07-26T01:58:33.021Z,17.09
2017-07-26T02:01:00.463Z,17.18
2017-07-26T02:03:27.917Z,17.24
2017-07-26T02:05:55.407Z,17.27
2017-07-26T02:08:22.914Z,17.30
2017-07-26T02:10:50.426Z,17.27
2017-07-26T02:13:17.867Z,17.15
2017-07-26T02:15:45.352Z,17.09
2017-07-26T02:18:12.890Z,17.12
2017-07-26T02:20:40.453Z,17.19
2017-07-26T02:23:07.902Z,17.14
2017-07-26T02:25:35.375Z,16.97
2017-07-26T02:28:02.824Z,17.18
2017-07-26T02:30:30.339Z,17.12
2017-07-26T02:32:57.895Z,17.10
2017-07-26T02:35:25.380Z,17.25
2017-07-26T02:37:52.862Z,17.24
2017-07-26T02:40:20.330Z,17.14
2017-07-26T02:42:47.771Z,17.17
2017-07-26T02:45:15.253Z,17.28
2017-07-26T02:47:42.938Z,17.43
2017-07-26T02:50:10.407Z,17.43
2017-07-26T02:52:37.863Z,17.39
2017-07-26T02:55:05.361Z,17.40
2017-07-26T02:57:32.797Z,17.36
2017-07-26T03:00:00.514Z,17.07
2017-07-26T03:02:27.953Z,17.07
2017-07-26T03:04:55.419Z,17.16
2017-07-26T03:07:22.948Z,17.11
2017-07-26T03:09:50.497Z,17.00
2017-07-26T03:12:18.318Z,16.97
2017-07-26T03:14:45.827Z,16.98
2017-07-26T03:17:13.392Z,16.95
2017-07-26T03:19:40.841Z,16.93
2017-07-26T03:22:08.330Z,16.94
2017-07-26T03:24:36.061Z,16.94
2017-07-26T03:27:03.605Z,16.91
2017-07-26T03:29:31.086Z,16.94
2017-07-26T03:31:58.569Z,16.98
2017-07-26T03:34:26.027Z,16.96
2017-07-26T03:36:53.855Z,16.96
2017-07-26T03:39:21.420Z,16.96
2017-07-26T03:41:48.977Z,17.03
2017-07-26T03:44:16.426Z,16.94
2017-07-26T03:46:43.869Z,16.99
2017-07-26T03:49:11.650Z,17.14
2017-07-26T03:51:39.143Z,17.04
2017-07-26T03:54:06.626Z,17.08
2017-07-26T03:56:34.071Z,17.10
2017-07-26T03:59:01.575Z,17.01
2017-07-26T04:01:29.071Z,16.97
2017-07-26T04:03:56.548Z,17.01
2017-07-26T04:06:24.044Z,16.93
2017-07-26T04:08:51.510Z,17.06
2017-07-26T04:11:18.951Z,16.98
2017-07-26T04:13:46.440Z,17.00
2017-07-26T04:16:14.259Z,16.98
2017-07-26T04:18:41.738Z,17.14
2017-07-26T04:21:09.304Z,17.21
2017-07-26T04:23:36.860Z,17.03
2017-07-26T04:26:04.310Z,17.09
2017-07-26T04:28:31.996Z,17.17
2017-07-26T04:30:59.543Z,17.32
2017-07-26T04:33:27.099Z,17.25
2017-07-26T04:35:54.575Z,17.14
2017-07-26T04:38:22.113Z,17.17
2017-07-26T04:40:49.885Z,17.06
2017-07-26T04:43:17.435Z,17.13
2017-07-26T04:45:44.897Z,17.15
2017-07-26T04:48:12.350Z,17.21
2017-07-26T04:50:39.821Z,17.16
2017-07-26T04:53:07.421Z,17.18
2017-07-26T04:55:34.876Z,17.17
2017-07-26T04:58:02.328Z,17.19
2017-07-26T05:00:29.789Z,17.15
2017-07-26T05:02:57.241Z,17.08
2017-07-26T05:05:24.752Z,17.28
2017-07-26T05:07:52.205Z,17.22
2017-07-26T05:10:19.779Z,17.20
2017-07-26T05:12:47.246Z,17.14
2017-07-26T05:15:14.692Z,17.18
2017-07-26T05:17:42.150Z,17.12
2017-07-26T05:20:09.688Z,17.19
2017-07-26T05:22:37.235Z,17.19
2017-07-26T05:25:04.691Z,17.01
2017-07-26T05:27:32.266Z,17.10
2017-07-26T05:29:59.717Z,17.12
2017-07-26T05:32:27.183Z,17.10
2017-07-26T05:34:54.626Z,17.13
2017-07-26T05:37:22.091Z,17.09
2017-07-26T05:39:49.523Z,17.05
2017-07-26T05:42:17.004Z,16.98
2017-07-26T05:44:44.784Z,16.96
2017-07-26T05:47:12.275Z,16.95
2017-07-26T05:49:39.727Z,16.98
2017-07-26T05:52:07.244Z,17.01
2017-07-26T05:54:34.678Z,17.08
2017-07-26T05:57:02.133Z,17.15
2017-07-26T05:59:29.698Z,17.03
2017-07-26T06:01:57.124Z,17.23
2017-07-26T06:04:24.595Z,17.07
2017-07-26T06:06:52.030Z,17.10
2017-07-26T06:09:20.019Z,17.20
2017-07-26T06:11:47.465Z,17.08
2017-07-26T06:14:15.852Z,17.14
2017-07-26T06:16:43.291Z,17.27
2017-07-26T06:19:10.780Z,17.14
2017-07-26T06:21:38.808Z,17.25
2017-07-26T06:24:06.321Z,17.30
2017-07-26T06:26:33.775Z,17.34
2017-07-26T06:29:01.279Z,17.57
2017-07-26T06:31:28.708Z,17.38
2017-07-26T06:33:56.231Z,17.42
2017-07-26T06:36:23.670Z,17.32
2017-07-26T06:38:51.160Z,17.31
2017-07-26T06:41:18.718Z,17.27
2017-07-26T06:43:46.146Z,17.37
2017-07-26T06:46:13.695Z,17.49
2017-07-26T06:48:41.191Z,17.46
2017-07-26T06:51:08.973Z,17.43
2017-07-26T06:53:36.516Z,17.37
2017-07-26T06:56:03.983Z,17.35
2017-07-26T06:58:31.902Z,17.38
2017-07-26T07:00:59.361Z,17.28
2017-07-26T07:03:26.841Z,17.46
2017-07-26T07:05:54.414Z,17.47
2017-07-26T07:08:21.847Z,17.48
2017-07-26T07:10:49.526Z,17.62
2017-07-26T07:13:16.952Z,17.59
2017-07-26T07:15:44.424Z,17.59
2017-07-26T07:18:11.859Z,17.59
2017-07-26T07:20:39.332Z,17.65
2017-07-26T07:23:07.039Z,17.81
2017-07-26T07:25:34.571Z,17.83
2017-07-26T07:28:02.034Z,17.96
2017-07-26T07:30:29.587Z,18.22
2017-07-26T07:32:57.038Z,18.01
2017-07-26T07:35:24.511Z,18.40
2017-07-26T07:37:51.949Z,18.44
2017-07-26T07:40:19.391Z,18.63
2017-07-26T07:42:46.872Z,18.77
2017-07-26T07:45:14.304Z,18.89
2017-07-26T07:47:41.767Z,18.84
2017-07-26T07:50:09.239Z,19.13
2017-07-26T07:52:36.707Z,19.23
2017-07-26T07:55:04.275Z,19.17
2017-07-26T07:57:31.811Z,19.46
2017-07-26T07:59:59.523Z,19.54
2017-07-26T08:02:27.051Z,19.64
2017-07-26T08:04:54.493Z,19.52
2017-07-26T08:07:21.953Z,19.63
2017-07-26T08:09:49.485Z,19.75
2017-07-26T08:12:17.082Z,19.60
2017-07-26T08:14:44.524Z,19.42
2017-07-26T08:17:12.065Z,19.52
2017-07-26T08:19:39.522Z,19.31
2017-07-26T08:22:06.971Z,19.50
2017-07-26T08:24:34.908Z,19.37
2017-07-26T08:27:02.364Z,19.46
2017-07-26T08:29:30.058Z,19.72
2017-07-26T08:31:57.536Z,19.85
2017-07-26T08:34:25.225Z,19.99
2017-07-26T08:36:54.042Z,19.99
2017-07-26T08:39:21.499Z,19.99
2017-07-26T08:41:48.939Z,20.34
2017-07-26T08:44:16.393Z,20.66
2017-07-26T08:46:43.839Z,20.96
2017-07-26T08:49:11.294Z,20.95
2017-07-26T08:51:38.765Z,21.20
2017-07-26T08:54:06.283Z,21.40
2017-07-26T08:56:33.735Z,21.52
2017-07-26T08:59:01.216Z,21.65
2017-07-26T09:01:29.313Z,21.55
2017-07-26T09:03:56.770Z,21.32
2017-07-26T09:06:24.239Z,21.81
2017-07-26T09:08:51.699Z,22.16
2017-07-26T09:11:19.167Z,22.40
2017-07-26T09:13:46.638Z,22.14
2017-07-26T09:16:14.132Z,22.21
2017-07-26T09:18:41.571Z,22.20
2017-07-26T09:21:09.124Z,22.01
2017-07-26T09:23:36.685Z,22.73
2017-07-26T09:26:04.543Z,23.19
2017-07-26T09:28:32.059Z,22.82
2017-07-26T09:30:59.559Z,23.01
2017-07-26T09:33:27.015Z,22.59
2017-07-26T09:35:54.477Z,22.50
2017-07-26T09:38:21.918Z,22.16
2017-07-26T09:40:49.390Z,22.38
2017-07-26T09:43:16.964Z,21.90
2017-07-26T09:45:44.436Z,21.63
2017-07-26T09:48:11.963Z,21.78
2017-07-26T09:50:39.431Z,21.50
2017-07-26T09:53:06.875Z,21.35
2017-07-26T09:55:34.315Z,21.17
2017-07-26T09:58:01.792Z,20.96
2017-07-26T10:00:29.231Z,21.09
2017-07-26T10:02:56.821Z,20.93
2017-07-26T10:05:24.277Z,21.08
2017-07-26T10:07:51.821Z,21.01
2017-07-26T10:10:19.249Z,20.77
2017-07-26T10:12:46.710Z,20.99
2017-07-26T10:15:14.270Z,21.53
2017-07-26T10:17:41.828Z,21.96
2017-07-26T10:20:09.256Z,22.50
2017-07-26T10:22:36.719Z,22.80
2017-07-26T10:25:04.163Z,22.95
2017-07-26T10:27:32.199Z,22.94
2017-07-26T10:29:59.702Z,22.96
2017-07-26T10:32:27.158Z,23.24
2017-07-26T10:34:54.654Z,23.15
2017-07-26T10:37:22.109Z,23.07
2017-07-26T10:39:49.770Z,23.49
2017-07-26T10:42:17.346Z,23.56
2017-07-26T10:44:44.777Z,23.76
2017-07-26T10:47:12.221Z,24.10
2017-07-26T10:49:39.685Z,23.66
2017-07-26T10:52:07.128Z,23.24
2017-07-26T10:54:34.597Z,23.04
2017-07-26T10:57:02.067Z,22.76
2017-07-26T10:59:29.628Z,22.58
2017-07-26T11:01:57.061Z,22.38
2017-07-26T11:04:24.758Z,22.26
2017-07-26T11:06:52.215Z,22.22
2017-07-26T11:09:20.569Z,21.74
2017-07-26T11:11:48.030Z,21.76
2017-07-26T11:14:15.490Z,21.80
2017-07-26T11:16:43.005Z,21.63
2017-07-26T11:19:10.474Z,21.93
2017-07-26T11:21:37.905Z,21.53
2017-07-26T11:24:05.362Z,21.91
2017-07-26T11:26:32.896Z,21.94
2017-07-26T11:29:00.434Z,21.93
2017-07-26T11:31:27.904Z,21.76
2017-07-26T11:33:55.347Z,22.01
2017-07-26T11:36:22.851Z,22.15
2017-07-26T11:38:50.316Z,22.08
2017-07-26T11:41:17.774Z,22.30
2017-07-26T11:43:45.265Z,22.35
2017-07-26T11:46:12.826Z,22.12
2017-07-26T11:48:40.263Z,22.43
2017-07-26T11:51:07.717Z,22.61
2017-07-26T11:53:35.197Z,23.00
2017-07-26T11:56:02.660Z,22.82
2017-07-26T11:58:30.132Z,22.56
2017-07-26T12:00:57.687Z,22.06
2017-07-26T12:03:25.118Z,21.95
2017-07-26T12:05:52.598Z,21.84
2017-07-26T12:08:20.073Z,21.58
2017-07-26T12:10:47.604Z,21.54
2017-07-26T12:13:15.072Z,21.23
2017-07-26T12:15:42.675Z,20.84
2017-07-26T12:18:10.181Z,20.80
2017-07-26T12:20:37.647Z,20.97
2017-07-26T12:23:05.198Z,20.87
2017-07-26T12:25:32.635Z,21.02
2017-07-26T12:28:00.097Z,20.98
2017-07-26T12:30:27.565Z,21.13
2017-07-26T12:32:55.119Z,21.35
2017-07-26T12:35:22.580Z,21.40
2017-07-26T12:37:50.090Z,21.66
2017-07-26T12:40:17.590Z,22.05
2017-07-26T12:42:45.052Z,22.62
2017-07-26T12:45:12.504Z,22.77
2017-07-26T12:47:39.964Z,22.67
2017-07-26T12:50:07.532Z,23.19
2017-07-26T12:52:35.136Z,23.46
2017-07-26T12:55:02.640Z,23.70
2017-07-26T12:57:30.093Z,23.07
2017-07-26T12:59:57.546Z,22.96
2017-07-26T13:02:24.969Z,23.42
2017-07-26T13:04:52.463Z,23.44
2017-07-26T13:07:19.923Z,23.70
2017-07-26T13:09:47.482Z,23.92
2017-07-26T13:12:14.927Z,24.27
2017-07-26T13:14:42.496Z,23.74
2017-07-26T13:17:09.953Z,23.73
2017-07-26T13:19:37.512Z,23.96
2017-07-26T13:22:04.953Z,23.82
2017-07-26T13:24:32.509Z,23.60
2017-07-26T13:26:59.942Z,24.03
2017-07-26T13:29:27.494Z,23.09
2017-07-26T13:31:54.942Z,23.16
2017-07-26T13:34:22.509Z,23.08
2017-07-26T13:36:49.963Z,22.98
2017-07-26T13:39:17.462Z,23.16
2017-07-26T13:41:45.032Z,22.89
2017-07-26T13:44:12.471Z,22.58
2017-07-26T13:46:39.954Z,22.68
2017-07-26T13:49:07.485Z,22.67
2017-07-26T13:51:35.056Z,22.70
2017-07-26T13:54:02.497Z,22.98
2017-07-26T13:56:29.950Z,22.72
2017-07-26T13:58:57.383Z,22.69
2017-07-26T14:01:24.939Z,22.63
2017-07-26T14:03:52.388Z,22.76
2017-07-26T14:06:19.872Z,22.74
2017-07-26T14:08:47.320Z,22.63
2017-07-26T14:11:14.754Z,22.71
2017-07-26T14:13:42.226Z,22.92
2017-07-26T14:16:09.683Z,23.16
2017-07-26T14:18:37.174Z,23.11
2017-07-26T14:21:04.640Z,23.26
2017-07-26T14:23:32.181Z,23.28
2017-07-26T14:25:59.635Z,23.41
2017-07-26T14:28:27.217Z,23.22
2017-07-26T14:30:54.781Z,23.12
2017-07-26T14:33:22.331Z,23.07
2017-07-26T14:35:49.768Z,23.00
2017-07-26T14:38:17.225Z,22.91
2017-07-26T14:40:44.685Z,23.12
2017-07-26T14:43:12.147Z,23.25
2017-07-26T14:45:39.586Z,23.35
2017-07-26T14:48:07.042Z,23.44
2017-07-26T14:50:34.519Z,23.69
2017-07-26T14:53:02.076Z,23.93
2017-07-26T14:55:29.535Z,23.85
2017-07-26T14:57:56.975Z,23.86
2017-07-26T15:00:24.453Z,23.47
2017-07-26T15:02:51.891Z,23.51
2017-07-26T15:05:19.351Z,23.84
2017-07-26T15:07:46.826Z,23.98
2017-07-26T15:10:14.283Z,24.05
2017-07-26T15:12:41.791Z,24.30
2017-07-26T15:15:09.266Z,24.15
2017-07-26T15:17:36.701Z,24.21
2017-07-26T15:20:04.193Z,24.18
2017-07-26T15:22:31.900Z,24.03
2017-07-26T15:24:59.349Z,23.75
2017-07-26T15:27:26.806Z,23.49
2017-07-26T15:29:54.291Z,23.47
2017-07-26T15:32:21.781Z,23.52
2017-07-26T15:34:49.580Z,23.14
2017-07-26T15:37:17.043Z,23.32
2017-07-26T15:39:44.498Z,23.49
2017-07-26T15:42:11.963Z,23.33
2017-07-26T15:44:39.473Z,23.60
2017-07-26T15:47:07.396Z,23.67
2017-07-26T15:49:34.843Z,23.82
2017-07-26T15:52:02.306Z,23.67
2017-07-26T15:54:29.751Z,24.06
2017-07-26T15:56:57.270Z,24.05
2017-07-26T15:59:24.734Z,23.78
2017-07-26T16:01:52.196Z,23.74
2017-07-26T16:04:19.738Z,23.93
2017-07-26T16:06:47.195Z,24.21
2017-07-26T16:09:14.637Z,24.15
2017-07-26T16:11:42.121Z,23.60
2017-07-26T16:14:09.549Z,23.74
2017-07-26T16:16:37.022Z,23.49
2017-07-26T16:19:04.477Z,23.55
2017-07-26T16:21:31.919Z,23.72
2017-07-26T16:23:59.584Z,23.60
2017-07-26T16:26:27.017Z,23.66
2017-07-26T16:28:54.527Z,23.29
2017-07-26T16:31:21.958Z,23.32
2017-07-26T16:33:49.517Z,23.23
2017-07-26T16:36:16.953Z,23.31
2017-07-26T16:38:44.415Z,23.78
2017-07-26T16:41:11.855Z,23.39
2017-07-26T16:43:39.349Z,23.61
2017-07-26T16:46:06.805Z,23.72
2017-07-26T16:48:34.376Z,23.49
2017-07-26T16:51:01.806Z,23.44
2017-07-26T16:53:29.267Z,23.45
2017-07-26T16:55:56.735Z,23.72
2017-07-26T16:58:24.295Z,23.92
2017-07-26T17:00:52.343Z,23.92
2017-07-26T17:03:19.827Z,24.00
2017-07-26T17:05:47.262Z,24.14
2017-07-26T17:08:14.707Z,24.33
2017-07-26T17:10:42.182Z,24.19
2017-07-26T17:13:09.857Z,24.49
2017-07-26T17:15:37.441Z,24.22
2017-07-26T17:18:05.289Z,24.52
2017-07-26T17:20:32.776Z,24.42
2017-07-26T17:23:00.228Z,24.33
2017-07-26T17:25:28.103Z,24.14
2017-07-26T17:27:55.676Z,23.99
2017-07-26T17:30:23.184Z,24.01
2017-07-26T17:32:50.640Z,23.89
2017-07-26T17:35:18.122Z,23.79
2017-07-26T17:37:45.657Z,23.70
2017-07-26T17:40:13.129Z,23.68
2017-07-26T17:42:40.599Z,23.41
2017-07-26T17:45:08.070Z,23.36
2017-07-26T17:47:35.512Z,23.33
2017-07-26T17:50:03.092Z,23.22
2017-07-26T17:52:30.560Z,23.07
2017-07-26T17:54:58.156Z,23.09
2017-07-26T17:57:25.603Z,22.93
2017-07-26T17:59:53.157Z,23.02
2017-07-26T18:02:20.660Z,22.88
2017-07-26T18:04:48.089Z,22.70
2017-07-26T18:07:16.514Z,22.71
2017-07-26T18:09:43.971Z,22.72
2017-07-26T18:12:11.429Z,22.59
2017-07-26T18:14:38.921Z,22.62
2017-07-26T18:17:06.378Z,22.51
2017-07-26T18:19:33.865Z,22.49
2017-07-26T18:22:01.325Z,22.47
2017-07-26T18:24:28.762Z,22.48
2017-07-26T18:26:56.214Z,22.28
2017-07-26T18:29:23.651Z,22.31
2017-07-26T18:31:51.117Z,22.58
2017-07-26T18:34:18.584Z,22.38
2017-07-26T18:36:46.029Z,22.28
2017-07-26T18:39:13.493Z,22.35
2017-07-26T18:41:40.940Z,22.34
2017-07-26T18:44:08.409Z,22.32
2017-07-26T18:46:35.857Z,22.20
2017-07-26T18:49:03.309Z,22.23
2017-07-26T18:51:30.832Z,22.16
2017-07-26T18:53:58.325Z,22.15
2017-07-26T18:56:25.768Z,21.93
2017-07-26T18:58:53.231Z,21.96
2017-07-26T19:01:20.667Z,21.98
2017-07-26T19:03:48.159Z,21.87
2017-07-26T19:06:15.656Z,21.75
2017-07-26T19:08:43.147Z,21.79
2017-07-26T19:11:10.635Z,21.81
2017-07-26T19:13:38.102Z,21.67
2017-07-26T19:16:05.633Z,21.57
2017-07-26T19:18:33.080Z,21.49
2017-07-26T19:21:00.526Z,21.40
2017-07-26T19:23:27.979Z,21.31
2017-07-26T19:25:55.565Z,21.19
2017-07-26T19:28:23.800Z,21.18
2017-07-26T19:30:51.319Z,21.10
2017-07-26T19:33:18.773Z,21.07
2017-07-26T19:35:46.265Z,20.99
2017-07-26T19:38:16.528Z,20.32
2017-07-26T19:40:43.998Z,20.17
2017-07-26T19:43:11.467Z,19.76
2017-07-26T19:45:38.930Z,20.07
2017-07-26T19:48:06.392Z,19.52
2017-07-26T19:50:33.948Z,19.40
2017-07-26T19:53:01.406Z,19.39
2017-07-26T19:55:28.887Z,19.15
2017-07-26T19:57:56.355Z,19.36
2017-07-26T20:00:23.874Z,19.10
2017-07-26T20:02:51.318Z,19.16
2017-07-26T20:05:18.806Z,19.04
2017-07-26T20:07:46.334Z,19.15
2017-07-26T20:10:13.927Z,19.04
2017-07-26T20:12:41.392Z,19.11
2017-07-26T20:15:08.842Z,19.18
2017-07-26T20:17:36.325Z,18.98
2017-07-26T20:20:03.770Z,19.03
2017-07-26T20:22:31.335Z,18.98
2017-07-26T20:24:58.780Z,18.83
2017-07-26T20:27:27.166Z,18.67
2017-07-26T20:29:54.611Z,18.55
2017-07-26T20:32:22.083Z,18.78
2017-07-26T20:34:49.529Z,18.97
2017-07-26T20:37:17.000Z,19.04
2017-07-26T20:39:44.568Z,18.98
2017-07-26T20:42:12.243Z,18.84
2017-07-26T20:44:39.723Z,18.52
2017-07-26T20:47:07.189Z,18.49
2017-07-26T20:49:34.779Z,18.51
2017-07-26T20:52:02.281Z,18.55
2017-07-26T20:54:29.702Z,17.99
2017-07-26T20:56:57.183Z,17.91
2017-07-26T20:59:24.646Z,18.24
2017-07-26T21:01:52.127Z,18.15
2017-07-26T21:04:20.679Z,17.96
2017-07-26T21:06:48.151Z,17.95
2017-07-26T21:09:15.606Z,17.89
2017-07-26T21:11:43.048Z,17.91
2017-07-26T21:14:10.527Z,17.75
2017-07-26T21:16:38.071Z,17.70
2017-07-26T21:19:05.545Z,17.71
2017-07-26T21:21:33.045Z,17.66
2017-07-26T21:24:00.499Z,17.61
2017-07-26T21:26:27.940Z,17.64
2017-07-26T21:28:55.463Z,17.65
2017-07-26T21:31:22.906Z,17.65
2017-07-26T21:33:50.461Z,17.80
2017-07-26T21:36:17.923Z,17.57
2017-07-26T21:38:45.394Z,17.70
2017-07-26T21:41:12.832Z,17.47
2017-07-26T21:43:40.399Z,17.48
2017-07-26T21:46:07.849Z,17.48
2017-07-26T21:48:35.422Z,17.55
2017-07-26T21:51:02.854Z,17.64
2017-07-26T21:53:30.337Z,17.52
2017-07-26T21:55:57.791Z,17.56
2017-07-26T21:58:25.235Z,17.56
2017-07-26T22:00:52.690Z,17.67
2017-07-26T22:03:20.134Z,17.53
2017-07-26T22:05:47.611Z,17.63
2017-07-26T22:08:15.042Z,17.54
2017-07-26T22:10:42.507Z,17.55
2017-07-26T22:13:09.959Z,17.57
2017-07-26T22:15:37.410Z,17.68
2017-07-26T22:18:04.899Z,17.57
2017-07-26T22:20:32.438Z,17.52
2017-07-26T22:22:59.877Z,17.49
2017-07-26T22:25:27.360Z,17.48
2017-07-26T22:27:54.797Z,17.39
2017-07-26T22:30:22.263Z,17.36
2017-07-26T22:32:49.714Z,17.22
2017-07-26T22:35:17.174Z,17.27
2017-07-26T22:37:44.651Z,17.28
2017-07-26T22:40:12.171Z,17.19
2017-07-26T22:42:39.653Z,17.07
2017-07-26T22:45:07.110Z,17.10
2017-07-26T22:47:34.556Z,17.02
2017-07-26T22:50:02.090Z,17.12
2017-07-26T22:52:29.586Z,17.03
2017-07-26T22:54:57.048Z,17.18
2017-07-26T22:57:24.507Z,17.30
2017-07-26T22:59:51.943Z,17.17
2017-07-26T23:02:19.411Z,17.20
2017-07-26T23:07:39.795Z,17.59
2017-07-26T23:10:07.246Z,17.41
2017-07-26T23:12:34.732Z,17.46
2017-07-26T23:15:02.158Z,17.45
2017-07-26T23:17:29.658Z,17.53
2017-07-26T23:19:58.534Z,17.53
2017-07-26T23:22:26.105Z,17.74
2017-07-26T23:24:53.570Z,17.83
2017-07-26T23:27:21.025Z,17.74
2017-07-26T23:29:48.751Z,17.96
2017-07-26T23:32:16.291Z,17.81
2017-07-26T23:34:43.732Z,17.79
2017-07-26T23:37:11.186Z,17.95
2017-07-26T23:39:38.631Z,17.92
2017-07-26T23:42:06.418Z,17.87
2017-07-26T23:44:33.940Z,18.00
2017-07-26T23:47:01.500Z,17.98
2017-07-26T23:49:28.945Z,18.06
2017-07-26T23:51:56.493Z,18.03
2017-07-26T23:54:23.959Z,18.09
2017-07-26T23:56:51.427Z,18.13
2017-07-26T23:59:18.986Z,18.29
